Date,TemperatureHighF,TemperatureAvgF,TemperatureLowF,DewpointHighF,DewpointAvgF,DewpointLowF,HumidityHigh,HumidityAvg,HumidityLow,PressureMaxIn,PressureMinIn,WindSpeedMaxMPH,WindSpeedAvgMPH,GustSpeedMaxMPH,PrecipitationSumIn
2013-12-1,45.6,42.4,36.8,43.8,40.0,32.1,95,91,80,30.28,29.90,6,2,10,0.07
2013-12-2,41.6,39.8,37.2,39.9,38.0,35.1,95,93,88,29.90,29.78,6,2,8,0.00
2013-12-3,45.6,41.7,37.2,40.2,38.0,35.6,95,87,71,29.89,29.76,8,4,11,0.00
2013-12-4,44.6,42.0,38.9,42.3,36.4,33.2,92,80,74,30.05,29.88,7,3,10,0.00
2013-12-5,61.7,53.8,44.8,57.4,51.7,42.6,97,93,84,30.04,29.85,11,5,17,0.00
2013-12-6,57.8,47.6,37.9,57.2,46.1,36.1,98,94,83,30.01,29.78,15,4,16,0.54
2013-12-7,38.3,36.6,33.2,36.2,29.7,20.8,93,77,57,30.38,29.95,20,14,26,0.15
2013-12-8,33.2,31.8,30.6,29.8,23.1,21.1,90,70,63,30.49,30.30,18,6,23,0.01
2013-12-9,45.9,37.7,31.1,44.8,36.5,29.4,97,95,91,30.29,29.80,10,4,13,0.25
2013-12-10,38.7,34.3,32.4,34.4,29.9,17.5,95,85,58,29.97,29.72,17,7,29,0.19
2013-12-11,33.3,29.9,25.7,21.4,17.8,14.9,72,61,51,30.19,29.98,11,6,18,0.00
2013-12-12,30.7,24.7,19.8,20.7,13.5,6.8,72,62,53,30.21,30.03,20,10,23,0.00
2013-12-13,33.4,28.6,21.2,23.7,14.9,6.1,74,56,48,30.23,29.99,12,8,20,0.00
2013-12-14,37.7,26.0,20.8,36.5,22.0,16.5,96,85,68,30.42,29.80,8,5,15,0.00
2013-12-15,42.6,36.1,30.2,41.5,32.2,23.8,96,86,66,29.79,29.31,16,8,23,1.52
2013-12-16,32.6,28.8,24.0,23.6,16.4,11.6,71,60,51,30.11,29.69,19,8,27,0.00
2013-12-17,34.4,25.6,20.2,32.9,21.3,11.1,94,84,62,30.12,29.79,14,5,20,0.01
2013-12-18,34.3,29.0,22.7,25.9,23.1,20.3,93,79,63,30.05,29.77,19,10,22,0.00
2013-12-19,43.6,35.6,24.5,33.3,26.4,19.6,83,70,53,30.06,29.91,16,8,18,0.21
2013-12-20,49.5,43.5,36.4,44.8,36.4,29.1,92,76,60,30.01,29.87,13,8,16,0.09
2013-12-21,56.7,50.8,45.1,53.6,47.6,43.6,95,89,77,29.91,29.81,17,10,23,0.00
2013-12-22,61.5,57.8,55.6,56.7,54.9,52.7,95,90,77,29.88,29.73,24,16,33,0.00
2013-12-23,57.0,51.3,40.1,55.1,49.5,35.7,97,94,84,30.00,29.78,17,6,20,0.40
2013-12-24,40.1,34.7,29.5,35.6,24.8,18.4,84,67,55,30.15,29.95,21,15,24,0.00
2013-12-25,29.4,23.8,20.2,20.6,12.6,9.0,73,62,49,30.43,30.16,21,8,27,0.00
2013-12-26,37.7,32.2,25.9,33.2,26.4,18.4,86,79,73,30.34,30.03,9,3,14,0.00
2013-12-27,40.3,34.7,25.6,27.9,24.7,21.2,91,67,48,30.23,30.14,6,3,13,0.00
2013-12-28,51.7,39.3,28.4,37.2,30.6,23.1,90,73,44,30.17,29.95,12,4,17,0.00
2013-12-29,53.5,42.9,39.4,52.4,39.2,32.7,97,87,69,29.96,29.23,28,6,30,1.71
2013-12-30,42.7,35.5,21.9,38.0,29.2,9.2,92,78,54,30.06,29.53,21,11,25,0.00
2013-12-31,31.6,24.4,19.3,23.5,14.2,8.6,73,65,54,30.12,29.95,17,8,21,0.00